sensor_id;sensor_type;location;lat;lon;timestamp;P1;durP1;ratioP1;P2;durP2;ratioP2
19965;SDS011;10144;50.874;4.762;2022-10-19T00:01:23;17.47;;;5.40;;
19965;SDS011;10144;50.874;4.762;2022-10-19T00:03:53;16.20;;;4.40;;
19965;SDS011;10144;50.874;4.762;2022-10-19T00:06:21;13.13;;;4.47;;
19965;SDS011;10144;50.874;4.762;2022-10-19T00:11:41;17.00;;;4.53;;
19965;SDS011;10144;50.874;4.762;2022-10-19T00:14:10;12.90;;;4.40;;
19965;SDS011;10144;50.874;4.762;2022-10-19T00:16:41;14.00;;;4.50;;
19965;SDS011;10144;50.874;4.762;2022-10-19T00:19:11;15.90;;;5.10;;
19965;SDS011;10144;50.874;4.762;2022-10-19T00:21:40;16.10;;;4.23;;
19965;SDS011;10144;50.874;4.762;2022-10-19T00:24:08;19.07;;;4.70;;
19965;SDS011;10144;50.874;4.762;2022-10-19T00:26:33;12.93;;;4.30;;
19965;SDS011;10144;50.874;4.762;2022-10-19T00:31:32;19.03;;;5.07;;
19965;SDS011;10144;50.874;4.762;2022-10-19T00:36:40;18.07;;;4.80;;
19965;SDS011;10144;50.874;4.762;2022-10-19T00:39:15;20.97;;;5.00;;
19965;SDS011;10144;50.874;4.762;2022-10-19T00:41:45;27.17;;;5.07;;
19965;SDS011;10144;50.874;4.762;2022-10-19T00:46:45;14.63;;;5.97;;
19965;SDS011;10144;50.874;4.762;2022-10-19T00:54:13;15.30;;;4.80;;
19965;SDS011;10144;50.874;4.762;2022-10-19T00:56:40;13.80;;;4.50;;
19965;SDS011;10144;50.874;4.762;2022-10-19T00:59:11;19.27;;;4.93;;
19965;SDS011;10144;50.874;4.762;2022-10-19T01:01:39;14.40;;;4.50;;
19965;SDS011;10144;50.874;4.762;2022-10-19T01:04:06;13.47;;;4.07;;
19965;SDS011;10144;50.874;4.762;2022-10-19T01:06:40;15.80;;;4.10;;
19965;SDS011;10144;50.874;4.762;2022-10-19T01:09:06;14.70;;;4.73;;
19965;SDS011;10144;50.874;4.762;2022-10-19T01:17:23;17.87;;;4.73;;
19965;SDS011;10144;50.874;4.762;2022-10-19T01:31:37;24.77;;;5.63;;
19965;SDS011;10144;50.874;4.762;2022-10-19T01:34:24;20.80;;;5.63;;
19965;SDS011;10144;50.874;4.762;2022-10-19T01:42:46;16.27;;;5.60;;
19965;SDS011;10144;50.874;4.762;2022-10-19T01:50:49;22.43;;;5.83;;
19965;SDS011;10144;50.874;4.762;2022-10-19T01:53:21;21.67;;;6.40;;
19965;SDS011;10144;50.874;4.762;2022-10-19T01:55:49;22.00;;;6.07;;
19965;SDS011;10144;50.874;4.762;2022-10-19T01:58:24;16.27;;;6.50;;
19965;SDS011;10144;50.874;4.762;2022-10-19T02:00:53;23.23;;;6.53;;
19965;SDS011;10144;50.874;4.762;2022-10-19T02:03:21;19.07;;;6.30;;
19965;SDS011;10144;50.874;4.762;2022-10-19T02:05:48;22.50;;;7.47;;
19965;SDS011;10144;50.874;4.762;2022-10-19T02:08:17;24.40;;;7.47;;
19965;SDS011;10144;50.874;4.762;2022-10-19T02:10:48;18.73;;;6.27;;
19965;SDS011;10144;50.874;4.762;2022-10-19T02:13:14;27.30;;;7.00;;
19965;SDS011;10144;50.874;4.762;2022-10-19T02:15:42;21.33;;;7.10;;
19965;SDS011;10144;50.874;4.762;2022-10-19T02:18:11;22.77;;;7.10;;
19965;SDS011;10144;50.874;4.762;2022-10-19T02:20:41;21.07;;;7.37;;
19965;SDS011;10144;50.874;4.762;2022-10-19T02:23:07;27.53;;;7.73;;
19965;SDS011;10144;50.874;4.762;2022-10-19T02:25:35;24.10;;;7.60;;
19965;SDS011;10144;50.874;4.762;2022-10-19T02:28:01;23.57;;;7.00;;
19965;SDS011;10144;50.874;4.762;2022-10-19T02:30:28;30.67;;;7.67;;
19965;SDS011;10144;50.874;4.762;2022-10-19T02:32:54;27.03;;;8.00;;
19965;SDS011;10144;50.874;4.762;2022-10-19T02:35:19;27.73;;;7.60;;
19965;SDS011;10144;50.874;4.762;2022-10-19T02:37:47;29.77;;;7.27;;
19965;SDS011;10144;50.874;4.762;2022-10-19T02:40:12;24.97;;;7.30;;
19965;SDS011;10144;50.874;4.762;2022-10-19T02:42:40;24.13;;;7.23;;
19965;SDS011;10144;50.874;4.762;2022-10-19T02:45:24;25.63;;;7.30;;
19965;SDS011;10144;50.874;4.762;2022-10-19T02:47:53;30.17;;;8.20;;
19965;SDS011;10144;50.874;4.762;2022-10-19T02:50:26;28.67;;;8.97;;
19965;SDS011;10144;50.874;4.762;2022-10-19T02:52:51;28.93;;;8.50;;
19965;SDS011;10144;50.874;4.762;2022-10-19T02:55:18;24.77;;;9.63;;
19965;SDS011;10144;50.874;4.762;2022-10-19T02:57:43;24.03;;;8.50;;
19965;SDS011;10144;50.874;4.762;2022-10-19T03:00:09;31.27;;;8.80;;
19965;SDS011;10144;50.874;4.762;2022-10-19T03:02:36;29.30;;;9.90;;
19965;SDS011;10144;50.874;4.762;2022-10-19T03:05:02;28.57;;;8.87;;
19965;SDS011;10144;50.874;4.762;2022-10-19T03:07:28;24.57;;;9.77;;
19965;SDS011;10144;50.874;4.762;2022-10-19T03:09:54;29.40;;;8.53;;
19965;SDS011;10144;50.874;4.762;2022-10-19T03:12:21;40.13;;;10.20;;
19965;SDS011;10144;50.874;4.762;2022-10-19T03:14:47;33.07;;;9.30;;
19965;SDS011;10144;50.874;4.762;2022-10-19T03:17:12;25.67;;;9.17;;
19965;SDS011;10144;50.874;4.762;2022-10-19T03:19:39;29.97;;;9.03;;
19965;SDS011;10144;50.874;4.762;2022-10-19T03:22:05;29.60;;;9.87;;
19965;SDS011;10144;50.874;4.762;2022-10-19T03:24:31;22.80;;;9.23;;
19965;SDS011;10144;50.874;4.762;2022-10-19T03:26:56;32.00;;;9.73;;
19965;SDS011;10144;50.874;4.762;2022-10-19T03:29:22;24.77;;;9.60;;
19965;SDS011;10144;50.874;4.762;2022-10-19T03:31:48;34.70;;;9.03;;
19965;SDS011;10144;50.874;4.762;2022-10-19T03:34:13;29.50;;;9.13;;
19965;SDS011;10144;50.874;4.762;2022-10-19T03:36:39;23.23;;;9.13;;
19965;SDS011;10144;50.874;4.762;2022-10-19T03:39:06;23.57;;;10.07;;
19965;SDS011;10144;50.874;4.762;2022-10-19T03:41:35;25.70;;;9.73;;
19965;SDS011;10144;50.874;4.762;2022-10-19T03:44:02;28.70;;;10.47;;
19965;SDS011;10144;50.874;4.762;2022-10-19T03:46:28;32.17;;;10.10;;
19965;SDS011;10144;50.874;4.762;2022-10-19T03:48:54;31.70;;;9.70;;
19965;SDS011;10144;50.874;4.762;2022-10-19T03:51:23;29.33;;;9.63;;
19965;SDS011;10144;50.874;4.762;2022-10-19T03:53:51;30.97;;;9.43;;
19965;SDS011;10144;50.874;4.762;2022-10-19T03:56:30;26.40;;;10.00;;
19965;SDS011;10144;50.874;4.762;2022-10-19T03:58:58;31.20;;;9.93;;
19965;SDS011;10144;50.874;4.762;2022-10-19T04:01:26;35.80;;;10.83;;
19965;SDS011;10144;50.874;4.762;2022-10-19T04:03:57;31.37;;;10.23;;
19965;SDS011;10144;50.874;4.762;2022-10-19T04:06:27;32.40;;;10.33;;
19965;SDS011;10144;50.874;4.762;2022-10-19T04:08:56;34.13;;;10.47;;
19965;SDS011;10144;50.874;4.762;2022-10-19T04:11:25;25.77;;;10.07;;
19965;SDS011;10144;50.874;4.762;2022-10-19T04:13:53;37.97;;;11.43;;
19965;SDS011;10144;50.874;4.762;2022-10-19T04:16:19;30.80;;;10.37;;
19965;SDS011;10144;50.874;4.762;2022-10-19T04:18:46;37.53;;;10.50;;
19965;SDS011;10144;50.874;4.762;2022-10-19T04:21:31;32.67;;;10.07;;
19965;SDS011;10144;50.874;4.762;2022-10-19T04:26:33;25.53;;;9.57;;
19965;SDS011;10144;50.874;4.762;2022-10-19T04:29:02;31.50;;;9.87;;
19965;SDS011;10144;50.874;4.762;2022-10-19T04:31:27;29.83;;;9.97;;
19965;SDS011;10144;50.874;4.762;2022-10-19T04:33:59;24.03;;;9.17;;
19965;SDS011;10144;50.874;4.762;2022-10-19T04:36:25;32.90;;;9.50;;
19965;SDS011;10144;50.874;4.762;2022-10-19T04:38:50;25.60;;;9.40;;
19965;SDS011;10144;50.874;4.762;2022-10-19T04:41:17;30.00;;;9.57;;
19965;SDS011;10144;50.874;4.762;2022-10-19T04:43:44;39.87;;;10.07;;
19965;SDS011;10144;50.874;4.762;2022-10-19T04:46:12;30.67;;;9.47;;
19965;SDS011;10144;50.874;4.762;2022-10-19T04:48:39;27.23;;;9.70;;
19965;SDS011;10144;50.874;4.762;2022-10-19T04:51:05;26.77;;;9.07;;
19965;SDS011;10144;50.874;4.762;2022-10-19T04:53:32;36.93;;;9.53;;
19965;SDS011;10144;50.874;4.762;2022-10-19T04:56:03;26.67;;;9.17;;
19965;SDS011;10144;50.874;4.762;2022-10-19T04:58:29;33.47;;;9.70;;
19965;SDS011;10144;50.874;4.762;2022-10-19T05:00:55;34.10;;;9.90;;
19965;SDS011;10144;50.874;4.762;2022-10-19T05:03:20;30.30;;;10.33;;
19965;SDS011;10144;50.874;4.762;2022-10-19T05:05:46;32.77;;;9.33;;
19965;SDS011;10144;50.874;4.762;2022-10-19T05:08:11;28.27;;;9.10;;
19965;SDS011;10144;50.874;4.762;2022-10-19T05:10:37;26.33;;;8.83;;
19965;SDS011;10144;50.874;4.762;2022-10-19T05:13:03;33.53;;;9.20;;
19965;SDS011;10144;50.874;4.762;2022-10-19T05:15:29;33.27;;;10.13;;
19965;SDS011;10144;50.874;4.762;2022-10-19T05:17:55;35.07;;;9.53;;
19965;SDS011;10144;50.874;4.762;2022-10-19T05:20:21;29.30;;;9.20;;
19965;SDS011;10144;50.874;4.762;2022-10-19T05:22:47;27.70;;;9.13;;
19965;SDS011;10144;50.874;4.762;2022-10-19T05:25:13;29.93;;;9.63;;
19965;SDS011;10144;50.874;4.762;2022-10-19T05:27:38;37.83;;;10.33;;
19965;SDS011;10144;50.874;4.762;2022-10-19T05:30:04;25.97;;;9.87;;
19965;SDS011;10144;50.874;4.762;2022-10-19T05:32:32;29.93;;;9.77;;
19965;SDS011;10144;50.874;4.762;2022-10-19T05:34:58;33.57;;;9.90;;
19965;SDS011;10144;50.874;4.762;2022-10-19T05:37:23;33.27;;;10.03;;
19965;SDS011;10144;50.874;4.762;2022-10-19T05:39:49;37.73;;;10.20;;
19965;SDS011;10144;50.874;4.762;2022-10-19T05:42:15;32.33;;;10.37;;
19965;SDS011;10144;50.874;4.762;2022-10-19T05:44:41;31.10;;;9.10;;
19965;SDS011;10144;50.874;4.762;2022-10-19T05:47:07;30.63;;;9.73;;
19965;SDS011;10144;50.874;4.762;2022-10-19T05:49:32;33.77;;;9.80;;
19965;SDS011;10144;50.874;4.762;2022-10-19T05:51:58;28.00;;;9.90;;
19965;SDS011;10144;50.874;4.762;2022-10-19T05:54:23;32.57;;;10.23;;
19965;SDS011;10144;50.874;4.762;2022-10-19T05:56:49;27.17;;;10.73;;
19965;SDS011;10144;50.874;4.762;2022-10-19T05:59:16;38.60;;;10.67;;
19965;SDS011;10144;50.874;4.762;2022-10-19T06:01:43;25.43;;;10.70;;
19965;SDS011;10144;50.874;4.762;2022-10-19T06:04:11;36.27;;;11.13;;
19965;SDS011;10144;50.874;4.762;2022-10-19T06:06:38;34.53;;;10.20;;
19965;SDS011;10144;50.874;4.762;2022-10-19T06:09:05;33.17;;;10.70;;
19965;SDS011;10144;50.874;4.762;2022-10-19T06:11:33;37.40;;;11.43;;
19965;SDS011;10144;50.874;4.762;2022-10-19T06:14:02;31.57;;;11.13;;
19965;SDS011;10144;50.874;4.762;2022-10-19T06:16:29;31.30;;;11.07;;
19965;SDS011;10144;50.874;4.762;2022-10-19T06:18:56;33.30;;;10.90;;
19965;SDS011;10144;50.874;4.762;2022-10-19T06:21:23;28.30;;;10.20;;
19965;SDS011;10144;50.874;4.762;2022-10-19T06:23:54;28.20;;;10.47;;
19965;SDS011;10144;50.874;4.762;2022-10-19T06:26:23;37.30;;;11.43;;
19965;SDS011;10144;50.874;4.762;2022-10-19T06:28:49;29.03;;;10.70;;
19965;SDS011;10144;50.874;4.762;2022-10-19T06:31:18;32.53;;;11.50;;
19965;SDS011;10144;50.874;4.762;2022-10-19T06:33:44;26.80;;;10.93;;
19965;SDS011;10144;50.874;4.762;2022-10-19T06:36:11;32.03;;;10.67;;
19965;SDS011;10144;50.874;4.762;2022-10-19T06:38:42;33.43;;;10.27;;
19965;SDS011;10144;50.874;4.762;2022-10-19T06:41:09;29.10;;;10.27;;
19965;SDS011;10144;50.874;4.762;2022-10-19T06:43:34;25.70;;;9.43;;
19965;SDS011;10144;50.874;4.762;2022-10-19T06:46:05;22.60;;;8.93;;
19965;SDS011;10144;50.874;4.762;2022-10-19T06:51:20;24.50;;;9.10;;
19965;SDS011;10144;50.874;4.762;2022-10-19T06:53:47;27.67;;;9.23;;
19965;SDS011;10144;50.874;4.762;2022-10-19T06:56:13;28.10;;;9.10;;
19965;SDS011;10144;50.874;4.762;2022-10-19T06:58:38;23.83;;;9.00;;
19965;SDS011;10144;50.874;4.762;2022-10-19T07:01:05;22.67;;;8.43;;
19965;SDS011;10144;50.874;4.762;2022-10-19T07:03:32;21.47;;;8.77;;
19965;SDS011;10144;50.874;4.762;2022-10-19T07:06:02;28.10;;;8.87;;
19965;SDS011;10144;50.874;4.762;2022-10-19T07:08:30;24.43;;;8.93;;
19965;SDS011;10144;50.874;4.762;2022-10-19T07:11:00;21.93;;;8.63;;
19965;SDS011;10144;50.874;4.762;2022-10-19T07:13:28;26.47;;;9.17;;
19965;SDS011;10144;50.874;4.762;2022-10-19T07:16:01;23.20;;;9.20;;
19965;SDS011;10144;50.874;4.762;2022-10-19T07:18:30;24.10;;;8.83;;
19965;SDS011;10144;50.874;4.762;2022-10-19T07:20:58;23.27;;;8.90;;
19965;SDS011;10144;50.874;4.762;2022-10-19T07:23:26;21.08;;;8.80;;
19965;SDS011;10144;50.874;4.762;2022-10-19T07:25:53;25.20;;;9.55;;
19965;SDS011;10144;50.874;4.762;2022-10-19T07:28:24;23.80;;;9.80;;
19965;SDS011;10144;50.874;4.762;2022-10-19T07:30:50;24.80;;;8.80;;
19965;SDS011;10144;50.874;4.762;2022-10-19T07:33:15;20.35;;;9.45;;
19965;SDS011;10144;50.874;4.762;2022-10-19T07:35:41;27.42;;;10.15;;
19965;SDS011;10144;50.874;4.762;2022-10-19T07:38:07;24.52;;;9.73;;
19965;SDS011;10144;50.874;4.762;2022-10-19T07:40:33;28.98;;;9.88;;
19965;SDS011;10144;50.874;4.762;2022-10-19T07:42:58;25.58;;;9.05;;
19965;SDS011;10144;50.874;4.762;2022-10-19T07:45:24;29.98;;;9.68;;
19965;SDS011;10144;50.874;4.762;2022-10-19T07:47:50;24.70;;;9.05;;
19965;SDS011;10144;50.874;4.762;2022-10-19T07:50:15;20.05;;;8.45;;
19965;SDS011;10144;50.874;4.762;2022-10-19T07:52:41;21.17;;;8.43;;
19965;SDS011;10144;50.874;4.762;2022-10-19T07:55:06;20.48;;;8.90;;
19965;SDS011;10144;50.874;4.762;2022-10-19T07:57:32;23.75;;;8.45;;
19965;SDS011;10144;50.874;4.762;2022-10-19T07:59:58;18.65;;;7.65;;
19965;SDS011;10144;50.874;4.762;2022-10-19T08:02:23;30.67;;;8.07;;
19965;SDS011;10144;50.874;4.762;2022-10-19T08:04:49;16.17;;;7.65;;
19965;SDS011;10144;50.874;4.762;2022-10-19T08:07:15;20.73;;;8.02;;
19965;SDS011;10144;50.874;4.762;2022-10-19T08:09:40;21.80;;;8.27;;
19965;SDS011;10144;50.874;4.762;2022-10-19T08:12:06;20.13;;;8.40;;
19965;SDS011;10144;50.874;4.762;2022-10-19T08:14:32;25.65;;;8.85;;
19965;SDS011;10144;50.874;4.762;2022-10-19T08:16:57;25.38;;;7.95;;
19965;SDS011;10144;50.874;4.762;2022-10-19T08:19:24;16.88;;;7.95;;
19965;SDS011;10144;50.874;4.762;2022-10-19T08:21:50;25.75;;;8.05;;
19965;SDS011;10144;50.874;4.762;2022-10-19T08:24:17;17.88;;;7.80;;
19965;SDS011;10144;50.874;4.762;2022-10-19T08:26:43;23.70;;;7.78;;
19965;SDS011;10144;50.874;4.762;2022-10-19T08:29:10;27.58;;;8.07;;
19965;SDS011;10144;50.874;4.762;2022-10-19T08:31:38;22.85;;;8.00;;
19965;SDS011;10144;50.874;4.762;2022-10-19T08:34:04;16.20;;;7.22;;
19965;SDS011;10144;50.874;4.762;2022-10-19T08:36:36;22.05;;;7.38;;
19965;SDS011;10144;50.874;4.762;2022-10-19T08:42:18;20.75;;;7.75;;
19965;SDS011;10144;50.874;4.762;2022-10-19T08:50:52;23.23;;;8.25;;
19965;SDS011;10144;50.874;4.762;2022-10-19T08:53:21;21.85;;;8.88;;
19965;SDS011;10144;50.874;4.762;2022-10-19T08:56:09;21.80;;;8.50;;
19965;SDS011;10144;50.874;4.762;2022-10-19T09:04:27;22.27;;;8.10;;
19965;SDS011;10144;50.874;4.762;2022-10-19T09:09:30;21.77;;;8.48;;
19965;SDS011;10144;50.874;4.762;2022-10-19T09:12:02;20.38;;;8.23;;
19965;SDS011;10144;50.874;4.762;2022-10-19T09:14:37;25.30;;;8.27;;
19965;SDS011;10144;50.874;4.762;2022-10-19T09:17:23;19.80;;;8.18;;
19965;SDS011;10144;50.874;4.762;2022-10-19T09:19:51;22.30;;;7.18;;
19965;SDS011;10144;50.874;4.762;2022-10-19T09:24:52;21.35;;;7.63;;
19965;SDS011;10144;50.874;4.762;2022-10-19T09:27:23;25.45;;;8.50;;
19965;SDS011;10144;50.874;4.762;2022-10-19T09:32:21;21.42;;;7.97;;
19965;SDS011;10144;50.874;4.762;2022-10-19T09:34:51;23.13;;;8.18;;
19965;SDS011;10144;50.874;4.762;2022-10-19T09:37:20;18.67;;;7.53;;
19965;SDS011;10144;50.874;4.762;2022-10-19T09:39:47;28.67;;;7.72;;
19965;SDS011;10144;50.874;4.762;2022-10-19T09:44:45;23.40;;;7.68;;
19965;SDS011;10144;50.874;4.762;2022-10-19T09:52:47;19.98;;;7.57;;
19965;SDS011;10144;50.874;4.762;2022-10-19T09:58:05;19.65;;;7.75;;
19965;SDS011;10144;50.874;4.762;2022-10-19T10:00:38;25.15;;;8.75;;
19965;SDS011;10144;50.874;4.762;2022-10-19T10:03:06;18.30;;;7.50;;
19965;SDS011;10144;50.874;4.762;2022-10-19T10:05:33;15.65;;;7.65;;
19965;SDS011;10144;50.874;4.762;2022-10-19T10:08:00;19.25;;;7.22;;
19965;SDS011;10144;50.874;4.762;2022-10-19T10:10:28;16.25;;;7.72;;
19965;SDS011;10144;50.874;4.762;2022-10-19T10:13:02;21.23;;;7.38;;
19965;SDS011;10144;50.874;4.762;2022-10-19T10:15:40;21.10;;;7.30;;
19965;SDS011;10144;50.874;4.762;2022-10-19T10:18:17;19.33;;;7.47;;
19965;SDS011;10144;50.874;4.762;2022-10-19T10:20:58;21.20;;;7.57;;
19965;SDS011;10144;50.874;4.762;2022-10-19T10:23:30;19.25;;;7.55;;
19965;SDS011;10144;50.874;4.762;2022-10-19T10:25:58;15.38;;;7.18;;
19965;SDS011;10144;50.874;4.762;2022-10-19T10:28:26;21.40;;;8.27;;
19965;SDS011;10144;50.874;4.762;2022-10-19T10:31:04;20.73;;;7.88;;
19965;SDS011;10144;50.874;4.762;2022-10-19T10:33:32;20.60;;;8.18;;
19965;SDS011;10144;50.874;4.762;2022-10-19T10:36:03;20.17;;;7.68;;
19965;SDS011;10144;50.874;4.762;2022-10-19T10:38:37;19.88;;;7.70;;
19965;SDS011;10144;50.874;4.762;2022-10-19T10:41:13;24.80;;;8.38;;
19965;SDS011;10144;50.874;4.762;2022-10-19T10:44:04;21.60;;;7.75;;
19965;SDS011;10144;50.874;4.762;2022-10-19T10:47:15;17.08;;;8.05;;
19965;SDS011;10144;50.874;4.762;2022-10-19T10:49:27;22.13;;;7.80;;
19965;SDS011;10144;50.874;4.762;2022-10-19T10:51:56;21.58;;;7.82;;
19965;SDS011;10144;50.874;4.762;2022-10-19T10:54:27;25.10;;;8.77;;
19965;SDS011;10144;50.874;4.762;2022-10-19T10:59:36;20.65;;;7.80;;
19965;SDS011;10144;50.874;4.762;2022-10-19T11:04:53;20.15;;;7.93;;
19965;SDS011;10144;50.874;4.762;2022-10-19T11:07:39;26.45;;;8.15;;
19965;SDS011;10144;50.874;4.762;2022-10-19T11:10:13;20.33;;;8.38;;
19965;SDS011;10144;50.874;4.762;2022-10-19T11:12:48;23.83;;;8.55;;
19965;SDS011;10144;50.874;4.762;2022-10-19T11:15:26;24.30;;;9.63;;
19965;SDS011;10144;50.874;4.762;2022-10-19T11:20:26;28.58;;;9.93;;
19965;SDS011;10144;50.874;4.762;2022-10-19T11:28:56;21.90;;;8.80;;
19965;SDS011;10144;50.874;4.762;2022-10-19T11:31:39;21.25;;;9.18;;
19965;SDS011;10144;50.874;4.762;2022-10-19T11:37:23;24.98;;;9.10;;
19965;SDS011;10144;50.874;4.762;2022-10-19T11:45:27;21.92;;;8.82;;
19965;SDS011;10144;50.874;4.762;2022-10-19T11:50:57;21.52;;;8.40;;
19965;SDS011;10144;50.874;4.762;2022-10-19T11:59:27;20.15;;;7.80;;
19965;SDS011;10144;50.874;4.762;2022-10-19T12:09:56;19.10;;;7.20;;
19965;SDS011;10144;50.874;4.762;2022-10-19T12:12:40;21.10;;;8.13;;
19965;SDS011;10144;50.874;4.762;2022-10-19T12:17:50;20.02;;;7.35;;
19965;SDS011;10144;50.874;4.762;2022-10-19T12:22:56;16.77;;;7.45;;
19965;SDS011;10144;50.874;4.762;2022-10-19T12:25:23;21.23;;;7.20;;
19965;SDS011;10144;50.874;4.762;2022-10-19T12:27:50;21.25;;;7.25;;
19965;SDS011;10144;50.874;4.762;2022-10-19T12:30:20;17.50;;;7.07;;
19965;SDS011;10144;50.874;4.762;2022-10-19T12:32:53;18.42;;;7.28;;
19965;SDS011;10144;50.874;4.762;2022-10-19T12:35:33;22.00;;;7.63;;
19965;SDS011;10144;50.874;4.762;2022-10-19T12:38:10;17.25;;;6.65;;
19965;SDS011;10144;50.874;4.762;2022-10-19T12:40:45;24.42;;;7.63;;
19965;SDS011;10144;50.874;4.762;2022-10-19T12:43:22;20.35;;;7.35;;
19965;SDS011;10144;50.874;4.762;2022-10-19T12:46:07;19.55;;;7.20;;
19965;SDS011;10144;50.874;4.762;2022-10-19T12:49:07;20.88;;;7.35;;
19965;SDS011;10144;50.874;4.762;2022-10-19T12:51:50;24.00;;;7.43;;
19965;SDS011;10144;50.874;4.762;2022-10-19T12:54:20;16.35;;;7.13;;
19965;SDS011;10144;50.874;4.762;2022-10-19T12:56:49;17.58;;;7.63;;
19965;SDS011;10144;50.874;4.762;2022-10-19T13:01:49;19.83;;;6.97;;
19965;SDS011;10144;50.874;4.762;2022-10-19T13:06:49;19.27;;;6.43;;
19965;SDS011;10144;50.874;4.762;2022-10-19T13:09:25;17.33;;;7.15;;
19965;SDS011;10144;50.874;4.762;2022-10-19T13:17:36;23.83;;;8.00;;
19965;SDS011;10144;50.874;4.762;2022-10-19T13:25:32;19.92;;;7.90;;
19965;SDS011;10144;50.874;4.762;2022-10-19T13:28:34;21.85;;;8.50;;
19965;SDS011;10144;50.874;4.762;2022-10-19T13:43:48;22.33;;;9.38;;
19965;SDS011;10144;50.874;4.762;2022-10-19T13:51:41;23.08;;;9.05;;
19965;SDS011;10144;50.874;4.762;2022-10-19T13:57:34;24.70;;;10.45;;
19965;SDS011;10144;50.874;4.762;2022-10-19T14:10:47;23.15;;;10.75;;
19965;SDS011;10144;50.874;4.762;2022-10-19T14:13:21;30.73;;;11.30;;
19965;SDS011;10144;50.874;4.762;2022-10-19T14:15:52;28.80;;;11.32;;
19965;SDS011;10144;50.874;4.762;2022-10-19T14:18:23;25.77;;;11.07;;
19965;SDS011;10144;50.874;4.762;2022-10-19T14:20:58;25.70;;;10.82;;
19965;SDS011;10144;50.874;4.762;2022-10-19T14:23:45;26.15;;;11.48;;
19965;SDS011;10144;50.874;4.762;2022-10-19T14:26:17;27.52;;;12.15;;
19965;SDS011;10144;50.874;4.762;2022-10-19T14:28:50;27.65;;;12.23;;
19965;SDS011;10144;50.874;4.762;2022-10-19T14:31:19;26.95;;;11.45;;
19965;SDS011;10144;50.874;4.762;2022-10-19T14:33:49;26.70;;;12.35;;
19965;SDS011;10144;50.874;4.762;2022-10-19T14:36:17;28.52;;;12.43;;
19965;SDS011;10144;50.874;4.762;2022-10-19T14:38:45;28.00;;;11.50;;
19965;SDS011;10144;50.874;4.762;2022-10-19T14:41:51;30.17;;;11.98;;
19965;SDS011;10144;50.874;4.762;2022-10-19T14:46:56;31.25;;;12.05;;
19965;SDS011;10144;50.874;4.762;2022-10-19T14:49:25;36.03;;;13.45;;
19965;SDS011;10144;50.874;4.762;2022-10-19T14:51:52;25.67;;;12.02;;
19965;SDS011;10144;50.874;4.762;2022-10-19T14:54:27;30.40;;;12.77;;
19965;SDS011;10144;50.874;4.762;2022-10-19T14:57:46;26.60;;;12.48;;
19965;SDS011;10144;50.874;4.762;2022-10-19T14:59:52;29.17;;;12.73;;
19965;SDS011;10144;50.874;4.762;2022-10-19T15:03:23;31.27;;;13.40;;
19965;SDS011;10144;50.874;4.762;2022-10-19T15:05:30;33.65;;;12.68;;
19965;SDS011;10144;50.874;4.762;2022-10-19T15:08:07;37.17;;;13.68;;
19965;SDS011;10144;50.874;4.762;2022-10-19T15:10:44;34.28;;;13.50;;
19965;SDS011;10144;50.874;4.762;2022-10-19T15:13:33;30.20;;;13.13;;
19965;SDS011;10144;50.874;4.762;2022-10-19T15:15:59;35.38;;;14.40;;
19965;SDS011;10144;50.874;4.762;2022-10-19T15:18:25;34.03;;;14.40;;
19965;SDS011;10144;50.874;4.762;2022-10-19T15:21:09;37.47;;;15.75;;
19965;SDS011;10144;50.874;4.762;2022-10-19T15:23:43;32.85;;;14.45;;
19965;SDS011;10144;50.874;4.762;2022-10-19T15:26:12;40.72;;;16.58;;
19965;SDS011;10144;50.874;4.762;2022-10-19T15:28:39;38.03;;;14.82;;
19965;SDS011;10144;50.874;4.762;2022-10-19T15:31:14;44.47;;;15.85;;
19965;SDS011;10144;50.874;4.762;2022-10-19T15:33:52;37.95;;;14.85;;
19965;SDS011;10144;50.874;4.762;2022-10-19T15:36:20;43.88;;;15.75;;
19965;SDS011;10144;50.874;4.762;2022-10-19T15:38:47;39.60;;;15.70;;
19965;SDS011;10144;50.874;4.762;2022-10-19T15:41:29;37.35;;;15.70;;
19965;SDS011;10144;50.874;4.762;2022-10-19T15:44:01;36.15;;;15.40;;
19965;SDS011;10144;50.874;4.762;2022-10-19T15:46:33;39.65;;;16.17;;
19965;SDS011;10144;50.874;4.762;2022-10-19T15:51:45;42.75;;;16.80;;
19965;SDS011;10144;50.874;4.762;2022-10-19T15:54:12;42.60;;;16.67;;
19965;SDS011;10144;50.874;4.762;2022-10-19T15:56:41;42.55;;;16.40;;
19965;SDS011;10144;50.874;4.762;2022-10-19T15:59:15;42.17;;;16.98;;
19965;SDS011;10144;50.874;4.762;2022-10-19T16:01:45;42.70;;;17.23;;
19965;SDS011;10144;50.874;4.762;2022-10-19T16:04:13;39.72;;;16.65;;
19965;SDS011;10144;50.874;4.762;2022-10-19T16:06:40;40.35;;;17.58;;
19965;SDS011;10144;50.874;4.762;2022-10-19T16:09:12;38.85;;;16.88;;
19965;SDS011;10144;50.874;4.762;2022-10-19T16:11:43;37.80;;;17.02;;
19965;SDS011;10144;50.874;4.762;2022-10-19T16:14:09;37.97;;;16.95;;
19965;SDS011;10144;50.874;4.762;2022-10-19T16:16:34;44.70;;;16.92;;
19965;SDS011;10144;50.874;4.762;2022-10-19T16:19:00;36.63;;;16.50;;
19965;SDS011;10144;50.874;4.762;2022-10-19T16:21:29;43.40;;;18.00;;
19965;SDS011;10144;50.874;4.762;2022-10-19T16:23:56;38.47;;;17.45;;
19965;SDS011;10144;50.874;4.762;2022-10-19T16:26:22;38.88;;;16.85;;
19965;SDS011;10144;50.874;4.762;2022-10-19T16:28:50;39.38;;;16.65;;
19965;SDS011;10144;50.874;4.762;2022-10-19T16:31:16;39.78;;;16.55;;
19965;SDS011;10144;50.874;4.762;2022-10-19T16:33:42;42.67;;;18.00;;
19965;SDS011;10144;50.874;4.762;2022-10-19T16:36:08;43.70;;;17.05;;
19965;SDS011;10144;50.874;4.762;2022-10-19T16:38:34;39.30;;;17.20;;
19965;SDS011;10144;50.874;4.762;2022-10-19T16:41:05;40.58;;;17.73;;
19965;SDS011;10144;50.874;4.762;2022-10-19T16:43:32;40.88;;;17.83;;
19965;SDS011;10144;50.874;4.762;2022-10-19T16:45:58;38.30;;;17.17;;
19965;SDS011;10144;50.874;4.762;2022-10-19T16:48:23;34.95;;;16.65;;
19965;SDS011;10144;50.874;4.762;2022-10-19T16:51:09;41.00;;;17.63;;
19965;SDS011;10144;50.874;4.762;2022-10-19T16:53:43;39.30;;;16.77;;
19965;SDS011;10144;50.874;4.762;2022-10-19T16:56:10;41.58;;;17.42;;
19965;SDS011;10144;50.874;4.762;2022-10-19T16:58:37;39.92;;;17.02;;
19965;SDS011;10144;50.874;4.762;2022-10-19T17:01:07;38.53;;;17.10;;
19965;SDS011;10144;50.874;4.762;2022-10-19T17:03:33;35.67;;;15.40;;
19965;SDS011;10144;50.874;4.762;2022-10-19T17:06:02;35.22;;;16.10;;
19965;SDS011;10144;50.874;4.762;2022-10-19T17:08:29;45.25;;;16.50;;
19965;SDS011;10144;50.874;4.762;2022-10-19T17:10:56;35.63;;;15.80;;
19965;SDS011;10144;50.874;4.762;2022-10-19T17:13:22;38.80;;;15.40;;
19965;SDS011;10144;50.874;4.762;2022-10-19T17:15:48;35.17;;;14.80;;
19965;SDS011;10144;50.874;4.762;2022-10-19T17:18:13;35.17;;;14.27;;
19965;SDS011;10144;50.874;4.762;2022-10-19T17:20:41;32.72;;;15.00;;
19965;SDS011;10144;50.874;4.762;2022-10-19T17:23:07;36.35;;;15.05;;
19965;SDS011;10144;50.874;4.762;2022-10-19T17:25:33;35.10;;;13.63;;
19965;SDS011;10144;50.874;4.762;2022-10-19T17:27:59;31.25;;;14.07;;
19965;SDS011;10144;50.874;4.762;2022-10-19T17:30:24;35.83;;;13.93;;
19965;SDS011;10144;50.874;4.762;2022-10-19T17:32:50;36.83;;;14.70;;
19965;SDS011;10144;50.874;4.762;2022-10-19T17:35:16;30.80;;;13.25;;
19965;SDS011;10144;50.874;4.762;2022-10-19T17:37:42;32.70;;;13.95;;
19965;SDS011;10144;50.874;4.762;2022-10-19T17:40:08;34.92;;;14.48;;
19965;SDS011;10144;50.874;4.762;2022-10-19T17:42:34;32.40;;;13.75;;
19965;SDS011;10144;50.874;4.762;2022-10-19T17:45:00;34.40;;;14.05;;
19965;SDS011;10144;50.874;4.762;2022-10-19T17:47:26;39.60;;;14.07;;